createdAt,value
2023-01-11T00:00:45.544Z,67.58
2023-01-11T00:03:12.600Z,66.91
2023-01-11T00:05:41.476Z,66.99
2023-01-11T00:08:09.619Z,67.58
2023-01-11T00:10:36.623Z,68.36
2023-01-11T00:13:04.133Z,69.23
2023-01-11T00:15:31.240Z,68.01
2023-01-11T00:17:57.957Z,67.99
2023-01-11T00:20:25.033Z,67.95
2023-01-11T00:22:51.768Z,67.58
2023-01-11T00:25:18.440Z,68.92
2023-01-11T00:27:47.209Z,69.11
2023-01-11T00:30:13.970Z,69.10
2023-01-11T00:32:40.573Z,68.90
2023-01-11T00:35:07.984Z,70.20
2023-01-11T00:37:34.772Z,69.18
2023-01-11T00:40:01.467Z,68.88
2023-01-11T00:42:46.977Z,69.38
2023-01-11T00:45:32.916Z,68.51
2023-01-11T00:48:04.943Z,68.28
2023-01-11T00:50:36.941Z,68.40
2023-01-11T00:53:04.530Z,67.97
2023-01-11T00:55:32.147Z,68.25
2023-01-11T00:57:59.150Z,68.68
2023-01-11T01:00:27.224Z,68.64
2023-01-11T01:02:54.235Z,67.38
2023-01-11T01:05:21.117Z,68.22
2023-01-11T01:07:48.304Z,67.86
2023-01-11T01:10:16.691Z,68.26
2023-01-11T01:13:01.699Z,68.23
2023-01-11T01:15:29.269Z,68.32
2023-01-11T01:17:56.295Z,67.37
2023-01-11T01:20:24.573Z,67.61
2023-01-11T01:22:52.024Z,68.74
2023-01-11T01:25:19.146Z,68.39
2023-01-11T01:27:45.861Z,68.33
2023-01-11T01:30:12.850Z,68.30
2023-01-11T01:32:39.555Z,67.75
2023-01-11T01:35:06.588Z,68.52
2023-01-11T01:37:33.217Z,68.13
2023-01-11T01:39:59.794Z,67.96
2023-01-11T01:42:26.477Z,68.33
2023-01-11T01:44:57.991Z,68.50
2023-01-11T01:47:30.528Z,68.67
2023-01-11T01:50:01.390Z,67.60
2023-01-11T01:52:29.469Z,67.92
2023-01-11T01:55:00.926Z,68.24
2023-01-11T01:57:34.086Z,68.14
2023-01-11T02:00:06.145Z,67.45
2023-01-11T02:02:33.472Z,68.38
2023-01-11T02:05:00.239Z,68.22
2023-01-11T02:07:31.860Z,68.42
2023-01-11T02:10:08.112Z,67.92
2023-01-11T02:12:51.877Z,67.88
2023-01-11T02:15:21.487Z,68.02
2023-01-11T02:17:48.204Z,67.89
2023-01-11T02:20:30.129Z,69.40
2023-01-11T02:23:17.989Z,69.01
2023-01-11T02:26:07.594Z,68.61
2023-01-11T02:28:56.039Z,67.90
2023-01-11T02:31:48.947Z,67.90
2023-01-11T02:34:43.916Z,67.98
2023-01-11T02:37:13.503Z,68.14
2023-01-11T02:39:59.184Z,69.04
2023-01-11T02:42:57.349Z,69.11
2023-01-11T02:45:29.792Z,68.41
2023-01-11T02:48:21.847Z,68.23
2023-01-11T02:51:30.355Z,68.68
2023-01-11T02:54:02.750Z,69.89
2023-01-11T02:56:33.685Z,69.28
2023-01-11T02:59:01.511Z,69.51
2023-01-11T03:01:28.193Z,69.31
2023-01-11T03:03:55.213Z,68.79
2023-01-11T03:06:28.727Z,69.15
2023-01-11T03:09:01.229Z,68.81
2023-01-11T03:12:08.089Z,69.13
2023-01-11T03:14:40.369Z,69.12
2023-01-11T03:17:31.586Z,68.88
2023-01-11T03:20:14.902Z,69.27
2023-01-11T03:22:47.239Z,69.40
2023-01-11T03:25:35.861Z,69.78
2023-01-11T03:28:06.122Z,69.11
2023-01-11T03:30:40.427Z,68.78
2023-01-11T03:33:13.728Z,69.27
2023-01-11T03:36:13.851Z,70.04
2023-01-11T03:38:49.549Z,70.33
2023-01-11T03:41:22.803Z,70.32
2023-01-11T03:43:51.993Z,70.14
2023-01-11T03:46:31.343Z,70.80
2023-01-11T03:49:01.063Z,71.41
2023-01-11T03:51:33.979Z,71.35
2023-01-11T03:54:03.869Z,71.56
2023-01-11T03:56:44.952Z,71.60
2023-01-11T03:59:12.193Z,71.51
2023-01-11T04:01:39.479Z,70.72
2023-01-11T04:04:06.179Z,70.77
2023-01-11T04:06:36.234Z,70.38
2023-01-11T04:09:03.741Z,70.49
2023-01-11T04:11:30.608Z,70.10
2023-01-11T04:13:57.209Z,69.96
2023-01-11T04:16:23.825Z,69.98
2023-01-11T04:18:50.463Z,69.88
2023-01-11T04:21:17.152Z,70.00
2023-01-11T04:23:43.791Z,69.65
2023-01-11T04:26:10.421Z,69.93
2023-01-11T04:28:37.005Z,69.70
2023-01-11T04:31:03.792Z,69.93
2023-01-11T04:33:30.476Z,69.88
2023-01-11T04:35:57.059Z,70.20
2023-01-11T04:38:25.138Z,70.48
2023-01-11T04:41:11.701Z,69.56
2023-01-11T04:43:38.264Z,68.96
2023-01-11T04:46:05.061Z,68.62
2023-01-11T04:48:33.449Z,69.27
2023-01-11T04:51:00.043Z,68.63
2023-01-11T04:53:26.670Z,68.21
2023-01-11T04:55:53.663Z,68.35
2023-01-11T04:58:20.258Z,68.31
2023-01-11T05:00:46.858Z,70.09
2023-01-11T05:03:13.505Z,70.87
2023-01-11T05:05:40.104Z,69.93
2023-01-11T05:08:06.739Z,70.17
2023-01-11T05:10:33.439Z,70.56
2023-01-11T05:13:00.010Z,70.10
2023-01-11T05:15:26.599Z,70.31
2023-01-11T05:17:53.208Z,69.93
2023-01-11T05:20:19.820Z,69.14
2023-01-11T05:22:46.570Z,69.10
2023-01-11T05:25:13.144Z,70.33
2023-01-11T05:27:39.782Z,69.62
2023-01-11T05:30:07.085Z,68.65
2023-01-11T05:32:33.717Z,68.69
2023-01-11T05:35:00.292Z,69.10
2023-01-11T05:37:26.902Z,68.57
2023-01-11T05:39:53.507Z,67.89
2023-01-11T05:42:20.189Z,68.74
2023-01-11T05:45:05.127Z,68.77
2023-01-11T05:47:31.847Z,68.10
2023-01-11T05:49:58.416Z,67.89
2023-01-11T05:52:25.008Z,68.13
2023-01-11T05:54:51.597Z,67.83
2023-01-11T05:57:18.195Z,68.39
2023-01-11T05:59:44.775Z,68.32
2023-01-11T06:02:11.493Z,68.59
2023-01-11T06:04:38.193Z,68.00
2023-01-11T06:07:04.853Z,68.66
2023-01-11T06:09:31.509Z,68.81
2023-01-11T06:11:58.072Z,68.58
2023-01-11T06:14:24.677Z,67.86
2023-01-11T06:16:51.316Z,67.71
2023-01-11T06:19:17.961Z,67.85
2023-01-11T06:21:44.611Z,67.59
2023-01-11T06:24:11.217Z,67.97
2023-01-11T06:26:37.952Z,68.28
2023-01-11T06:29:04.555Z,69.06
2023-01-11T06:31:31.131Z,68.37
2023-01-11T06:33:57.759Z,67.93
2023-01-11T06:36:24.336Z,67.75
2023-01-11T06:38:52.376Z,67.32
2023-01-11T06:41:19.147Z,67.54
2023-01-11T06:43:46.557Z,67.64
2023-01-11T06:46:15.703Z,67.34
2023-01-11T06:48:43.298Z,67.88
2023-01-11T06:51:12.021Z,67.85
2023-01-11T06:53:39.959Z,67.85
2023-01-11T06:56:06.903Z,68.81
2023-01-11T06:58:33.540Z,68.77
2023-01-11T07:01:00.347Z,68.47
2023-01-11T07:03:27.480Z,68.42
2023-01-11T07:05:56.839Z,68.43
2023-01-11T07:08:25.430Z,69.41
2023-01-11T07:10:52.555Z,69.05
2023-01-11T07:13:19.511Z,69.04
2023-01-11T07:15:50.990Z,69.40
2023-01-11T07:18:19.059Z,69.71
2023-01-11T07:20:46.232Z,69.25
2023-01-11T07:23:13.010Z,69.11
2023-01-11T07:25:39.822Z,68.82
2023-01-11T07:28:08.384Z,68.72
2023-01-11T07:30:55.557Z,70.33
2023-01-11T07:33:23.315Z,70.96
2023-01-11T07:35:50.027Z,70.98
2023-01-11T07:38:16.797Z,70.85
2023-01-11T07:40:43.489Z,71.04
2023-01-11T07:43:15.039Z,72.01
2023-01-11T07:45:48.887Z,71.13
2023-01-11T07:48:20.977Z,71.16
2023-01-11T07:50:48.789Z,70.86
2023-01-11T07:53:15.681Z,70.80
2023-01-11T07:55:42.704Z,71.27
2023-01-11T07:58:12.708Z,71.82
2023-01-11T08:00:41.159Z,71.54
2023-01-11T08:03:08.336Z,71.86
2023-01-11T08:05:35.068Z,72.10
2023-01-11T08:08:01.990Z,71.37
2023-01-11T08:10:28.639Z,72.30
2023-01-11T08:13:14.053Z,72.41
2023-01-11T08:15:43.567Z,72.51
2023-01-11T08:18:11.846Z,72.28
2023-01-11T08:20:39.540Z,71.98
2023-01-11T08:23:08.395Z,71.76
2023-01-11T08:25:35.444Z,71.78
2023-01-11T08:28:04.318Z,72.38
2023-01-11T08:30:31.227Z,71.86
2023-01-11T08:33:00.802Z,71.74
2023-01-11T08:35:27.560Z,71.67
2023-01-11T08:37:54.239Z,71.69
2023-01-11T08:40:23.726Z,71.79
2023-01-11T08:42:55.015Z,70.91
2023-01-11T08:45:22.196Z,70.71
2023-01-11T08:47:50.835Z,71.02
2023-01-11T08:50:18.716Z,70.90
2023-01-11T08:52:46.207Z,71.02
2023-01-11T08:55:12.841Z,70.26
2023-01-11T08:57:39.592Z,70.17
2023-01-11T09:00:07.940Z,70.49
2023-01-11T09:02:34.640Z,70.42
2023-01-11T09:05:01.296Z,69.95
2023-01-11T09:07:27.976Z,70.78
2023-01-11T09:09:54.576Z,70.39
2023-01-11T09:12:21.322Z,70.44
2023-01-11T09:14:47.893Z,70.15
2023-01-11T09:17:14.495Z,70.57
2023-01-11T09:19:41.130Z,70.45
2023-01-11T09:22:07.709Z,70.67
2023-01-11T09:24:34.331Z,70.67
2023-01-11T09:27:01.235Z,70.68
2023-01-11T09:29:27.929Z,71.01
2023-01-11T09:31:54.622Z,70.98
2023-01-11T09:34:21.673Z,70.46
2023-01-11T09:36:48.993Z,70.92
2023-01-11T09:39:18.836Z,71.61
2023-01-11T09:42:05.383Z,71.77
2023-01-11T09:44:36.666Z,71.72
2023-01-11T09:47:28.773Z,71.83
2023-01-11T09:50:00.423Z,71.41
2023-01-11T09:52:38.390Z,71.53
2023-01-11T09:55:06.171Z,72.59
2023-01-11T09:58:11.111Z,72.78
2023-01-11T10:01:01.130Z,71.20
2023-01-11T10:03:38.909Z,70.98
2023-01-11T10:06:32.937Z,70.73
2023-01-11T10:18:31.138Z,70.43
2023-01-11T10:21:33.426Z,70.36
2023-01-11T10:24:29.509Z,70.85
2023-01-11T10:26:58.880Z,71.13
2023-01-11T10:29:53.198Z,70.85
2023-01-11T10:32:54.135Z,70.48
2023-01-11T10:36:00.356Z,70.40
2023-01-11T10:38:57.471Z,70.25
2023-01-11T10:41:38.815Z,70.59
2023-01-11T10:44:08.438Z,69.97
2023-01-11T10:46:39.992Z,70.27
2023-01-11T10:49:21.534Z,70.19
2023-01-11T10:51:49.594Z,69.99
2023-01-11T10:54:22.174Z,69.85
2023-01-11T10:57:11.382Z,70.16
2023-01-11T10:59:51.010Z,69.83
2023-01-11T11:02:47.029Z,69.65
2023-01-11T11:05:41.524Z,69.27
2023-01-11T11:08:26.440Z,69.37
2023-01-11T11:11:03.181Z,69.85
2023-01-11T11:13:38.414Z,69.44
2023-01-11T11:16:23.191Z,68.83
2023-01-11T11:18:52.027Z,69.00
2023-01-11T11:21:25.623Z,69.79
2023-01-11T11:23:58.651Z,69.38
2023-01-11T11:26:30.941Z,69.30
2023-01-11T11:29:10.104Z,69.19
2023-01-11T11:31:42.916Z,69.26
2023-01-11T11:34:19.228Z,68.96
2023-01-11T11:36:48.996Z,69.03
2023-01-11T11:39:32.571Z,68.79
2023-01-11T11:42:08.848Z,68.88
2023-01-11T11:44:35.571Z,68.86
2023-01-11T11:47:22.403Z,68.78
2023-01-11T11:49:48.986Z,68.95
2023-01-11T11:52:17.857Z,68.55
2023-01-11T11:54:57.598Z,68.46
2023-01-11T11:57:28.569Z,69.18
2023-01-11T12:00:09.114Z,68.81
2023-01-11T12:02:43.722Z,68.49
2023-01-11T12:05:11.103Z,68.43
2023-01-11T12:07:54.347Z,68.26
2023-01-11T12:10:24.244Z,68.51
2023-01-11T12:12:58.994Z,68.57
2023-01-11T12:15:33.816Z,68.48
2023-01-11T12:18:25.113Z,68.72
2023-01-11T12:20:52.149Z,68.88
2023-01-11T12:23:25.082Z,68.48
2023-01-11T12:26:13.475Z,68.19
2023-01-11T12:28:51.877Z,68.31
2023-01-11T12:31:52.587Z,68.64
2023-01-11T12:34:53.223Z,68.78
2023-01-11T12:37:25.759Z,68.87
2023-01-11T12:39:52.286Z,68.99
2023-01-11T12:42:24.480Z,69.02
2023-01-11T12:45:00.029Z,68.66
2023-01-11T12:47:44.472Z,68.92
2023-01-11T12:50:30.504Z,68.86
2023-01-11T12:53:31.119Z,68.51
2023-01-11T12:56:33.155Z,68.54
2023-01-11T12:59:07.296Z,68.87
2023-01-11T13:02:08.302Z,68.80
2023-01-11T13:05:13.504Z,68.61
2023-01-11T13:07:56.711Z,68.90
2023-01-11T13:10:32.615Z,68.32
2023-01-11T13:13:22.899Z,67.80
2023-01-11T13:16:19.771Z,67.92
2023-01-11T13:18:59.178Z,68.15
2023-01-11T13:21:33.883Z,68.33
2023-01-11T13:24:13.595Z,68.07
2023-01-11T13:26:45.682Z,67.70
2023-01-11T13:29:37.891Z,67.60
2023-01-11T13:32:08.776Z,67.54
2023-01-11T13:34:45.375Z,67.95
2023-01-11T13:37:19.913Z,67.97
2023-01-11T13:40:02.086Z,67.82
2023-01-11T13:42:34.109Z,67.66
2023-01-11T13:45:10.723Z,67.82
2023-01-11T13:47:44.978Z,67.67
2023-01-11T13:50:23.594Z,67.47
2023-01-11T13:53:09.975Z,67.27
2023-01-11T13:55:39.549Z,66.98
2023-01-11T13:58:10.647Z,66.80
2023-01-11T14:00:59.968Z,66.96
2023-01-11T14:03:51.732Z,66.83
2023-01-11T14:06:37.361Z,66.62
2023-01-11T14:09:18.440Z,66.72
2023-01-11T14:11:52.862Z,66.63
2023-01-11T14:14:48.291Z,66.38
2023-01-11T14:17:36.659Z,65.96
2023-01-11T14:20:18.512Z,65.59
2023-01-11T14:22:58.870Z,66.14
2023-01-11T14:25:36.612Z,65.62
2023-01-11T14:28:15.276Z,65.86
2023-01-11T14:30:55.200Z,66.35
2023-01-11T14:33:53.071Z,66.16
2023-01-11T14:36:28.579Z,66.10
2023-01-11T14:39:29.213Z,65.96
2023-01-11T14:42:31.069Z,66.90
2023-01-11T14:45:16.933Z,66.58
2023-01-11T14:47:52.322Z,66.90
2023-01-11T14:50:50.512Z,67.04
2023-01-11T14:53:23.631Z,66.33
2023-01-11T14:55:50.404Z,66.66
2023-01-11T14:58:29.062Z,67.47
2023-01-11T15:00:55.583Z,67.05
2023-01-11T15:03:22.104Z,66.65
2023-01-11T15:05:54.443Z,66.90
2023-01-11T15:08:27.390Z,66.29
2023-01-11T15:11:07.764Z,66.69
2023-01-11T15:13:43.147Z,67.39
2023-01-11T15:16:34.006Z,67.02
2023-01-11T15:19:06.101Z,66.81
2023-01-11T15:21:40.784Z,66.33
2023-01-11T15:24:21.956Z,66.96
2023-01-11T15:26:49.756Z,69.10
2023-01-11T15:29:32.745Z,70.54
2023-01-11T15:32:06.968Z,69.67
2023-01-11T15:34:41.525Z,68.56
2023-01-11T15:37:19.964Z,67.63
2023-01-11T15:40:14.120Z,67.15
2023-01-11T15:43:02.461Z,68.48
2023-01-11T15:46:12.340Z,68.61
2023-01-11T15:49:03.693Z,68.36
2023-01-11T15:51:48.909Z,69.00
2023-01-11T15:54:37.915Z,68.66
2023-01-11T15:57:17.009Z,68.37
2023-01-11T16:00:19.486Z,67.76
2023-01-11T16:03:20.064Z,67.95
2023-01-11T16:05:57.708Z,68.39
2023-01-11T16:08:38.910Z,67.47
2023-01-11T16:11:19.945Z,67.76
2023-01-11T16:13:49.537Z,67.34
2023-01-11T16:16:29.445Z,67.28
2023-01-11T16:19:06.085Z,67.03
2023-01-11T16:21:36.183Z,66.67
2023-01-11T16:24:07.688Z,66.75
2023-01-11T16:26:37.873Z,66.63
2023-01-11T16:29:12.964Z,66.95
2023-01-11T16:31:58.166Z,66.99
2023-01-11T16:34:29.783Z,66.95
2023-01-11T16:36:57.789Z,66.86
2023-01-11T16:39:30.213Z,67.35
2023-01-11T16:41:59.600Z,67.65
2023-01-11T16:44:45.589Z,67.28
2023-01-11T16:47:13.649Z,67.70
2023-01-11T16:49:42.269Z,68.50
2023-01-11T16:52:26.996Z,67.80
2023-01-11T16:54:55.682Z,68.30
2023-01-11T16:57:29.090Z,68.75
2023-01-11T17:00:07.990Z,68.71
2023-01-11T17:02:38.019Z,68.51
2023-01-11T17:05:19.227Z,71.00
2023-01-11T17:07:45.981Z,70.39
2023-01-11T17:10:15.412Z,70.77
2023-01-11T17:12:46.461Z,69.77
2023-01-11T17:15:15.676Z,69.05
2023-01-11T17:17:42.427Z,70.39
2023-01-11T17:20:35.341Z,72.26
2023-01-11T17:23:02.007Z,74.61
2023-01-11T17:25:44.306Z,72.85
2023-01-11T17:28:19.970Z,73.24
2023-01-11T17:30:50.651Z,73.60
2023-01-11T17:33:29.406Z,73.71
2023-01-11T17:35:56.421Z,74.95
2023-01-11T17:38:25.811Z,74.29
2023-01-11T17:40:56.943Z,74.74
2023-01-11T17:43:45.084Z,75.81
2023-01-11T17:46:18.570Z,75.35
2023-01-11T17:49:20.928Z,76.38
2023-01-11T17:51:47.608Z,76.91
2023-01-11T17:54:23.989Z,78.07
2023-01-11T17:56:59.347Z,78.88
2023-01-11T17:59:27.883Z,78.42
2023-01-11T18:02:00.394Z,79.26
2023-01-11T18:04:27.971Z,79.69
2023-01-11T18:07:05.958Z,80.04
2023-01-11T18:09:37.412Z,80.08
2023-01-11T18:12:29.478Z,80.58
2023-01-11T18:15:01.116Z,80.33
2023-01-11T18:17:42.242Z,80.86
2023-01-11T18:20:14.974Z,80.89
2023-01-11T18:22:53.473Z,81.04
2023-01-11T18:25:24.903Z,81.02
2023-01-11T18:28:11.961Z,80.61
2023-01-11T18:30:46.609Z,81.09
2023-01-11T18:33:19.588Z,80.51
2023-01-11T18:35:49.480Z,80.86
2023-01-11T18:38:29.258Z,80.67
2023-01-11T18:40:58.546Z,80.45
2023-01-11T18:43:34.171Z,80.62
2023-01-11T18:46:00.830Z,80.06
2023-01-11T18:48:27.448Z,79.55
2023-01-11T18:50:54.618Z,79.33
2023-01-11T18:53:21.272Z,80.33
2023-01-11T18:55:47.854Z,79.61
2023-01-11T18:58:14.494Z,79.57
2023-01-11T19:00:41.711Z,80.31
2023-01-11T19:03:11.050Z,80.82
2023-01-11T19:05:37.728Z,81.08
2023-01-11T19:08:04.515Z,81.46
2023-01-11T19:10:31.103Z,80.42
2023-01-11T19:12:58.051Z,81.15
2023-01-11T19:15:25.143Z,80.96
2023-01-11T19:17:51.805Z,81.40
2023-01-11T19:20:18.458Z,81.24
2023-01-11T19:22:45.175Z,80.86
2023-01-11T19:25:11.913Z,80.68
2023-01-11T19:27:38.724Z,80.55
2023-01-11T19:30:06.598Z,80.38
2023-01-11T19:32:33.288Z,81.08
2023-01-11T19:35:00.045Z,80.35
2023-01-11T19:37:27.901Z,80.38
2023-01-11T19:39:54.534Z,80.20
2023-01-11T19:42:22.180Z,79.74
2023-01-11T19:44:48.865Z,80.50
2023-01-11T19:47:15.839Z,80.16
2023-01-11T19:49:43.649Z,79.73
2023-01-11T19:52:13.415Z,79.86
2023-01-11T19:54:43.885Z,80.12
2023-01-11T19:57:19.035Z,80.28
2023-01-11T19:59:46.460Z,79.43
2023-01-11T20:02:15.336Z,79.45
2023-01-11T20:04:42.135Z,80.43
2023-01-11T20:07:10.670Z,80.59
2023-01-11T20:09:38.094Z,80.09
2023-01-11T20:12:07.064Z,80.02
2023-01-11T20:14:34.392Z,80.52
2023-01-11T20:17:01.195Z,80.21
2023-01-11T20:19:28.047Z,80.15
2023-01-11T20:21:55.954Z,80.24
2023-01-11T20:24:28.408Z,80.10
2023-01-11T20:27:00.126Z,80.27
2023-01-11T20:29:26.784Z,81.74
2023-01-11T20:31:53.457Z,82.34
2023-01-11T20:34:20.755Z,82.62
2023-01-11T20:36:48.816Z,83.27
2023-01-11T20:39:15.693Z,83.52
2023-01-11T20:41:48.569Z,82.73
2023-01-11T20:44:16.957Z,82.53
2023-01-11T20:46:47.437Z,81.93
2023-01-11T20:49:15.182Z,81.93
2023-01-11T20:51:42.966Z,81.21
2023-01-11T20:54:10.015Z,80.62
2023-01-11T20:56:38.509Z,80.02
2023-01-11T20:59:07.553Z,80.74
2023-01-11T21:01:34.788Z,80.61
2023-01-11T21:04:06.723Z,80.62
2023-01-11T21:06:35.297Z,80.36
2023-01-11T21:09:02.773Z,79.92
2023-01-11T21:11:31.408Z,80.70
2023-01-11T21:14:01.859Z,81.36
2023-01-11T21:16:29.522Z,80.79
2023-01-11T21:19:01.694Z,80.35
2023-01-11T21:21:30.446Z,80.19
2023-01-11T21:23:59.679Z,79.66
2023-01-11T21:26:27.236Z,79.00
2023-01-11T21:28:55.855Z,78.85
2023-01-11T21:31:23.004Z,78.82
2023-01-11T21:33:50.389Z,79.19
2023-01-11T21:36:21.491Z,79.41
2023-01-11T21:38:48.263Z,80.30
2023-01-11T21:41:17.890Z,79.98
2023-01-11T21:43:45.067Z,79.71
2023-01-11T21:46:13.055Z,80.13
2023-01-11T21:48:39.782Z,80.97
2023-01-11T21:51:10.017Z,80.30
2023-01-11T21:53:36.994Z,80.89
2023-01-11T21:56:08.483Z,80.87
2023-01-11T21:58:35.776Z,80.93
2023-01-11T22:01:12.779Z,81.64
2023-01-11T22:03:42.294Z,81.23
2023-01-11T22:06:10.414Z,81.71
2023-01-11T22:08:39.522Z,81.20
2023-01-11T22:11:06.938Z,80.86
2023-01-11T22:13:35.416Z,81.17
2023-01-11T22:16:04.976Z,81.20
2023-01-11T22:18:32.160Z,80.42
2023-01-11T22:21:05.507Z,80.93
2023-01-11T22:23:32.171Z,81.25
2023-01-11T22:26:06.603Z,80.61
2023-01-11T22:28:53.167Z,81.15
2023-01-11T22:31:20.807Z,80.53
2023-01-11T22:33:47.597Z,79.26
2023-01-11T22:36:14.894Z,78.43
2023-01-11T22:38:41.918Z,78.07
2023-01-11T22:41:08.872Z,77.59
2023-01-11T22:43:35.552Z,76.81
2023-01-11T22:46:02.387Z,76.58
2023-01-11T22:48:31.445Z,76.27
2023-01-11T22:50:58.608Z,76.05
2023-01-11T22:53:25.242Z,75.76
2023-01-11T22:55:51.854Z,75.08
2023-01-11T22:58:18.427Z,75.09
2023-01-11T23:00:45.117Z,75.50
2023-01-11T23:03:11.781Z,74.89
2023-01-11T23:05:44.552Z,75.34
2023-01-11T23:08:11.185Z,75.07
2023-01-11T23:10:37.754Z,75.01
2023-01-11T23:13:22.519Z,74.79
2023-01-11T23:15:53.525Z,74.33
2023-01-11T23:18:20.412Z,74.03
2023-01-11T23:20:47.045Z,74.28
2023-01-11T23:23:13.768Z,75.25
2023-01-11T23:25:40.340Z,75.88
2023-01-11T23:28:06.987Z,74.34
2023-01-11T23:30:33.565Z,73.84
2023-01-11T23:33:00.162Z,74.39
2023-01-11T23:35:26.773Z,74.95
2023-01-11T23:37:54.740Z,74.80
2023-01-11T23:40:21.360Z,74.19
2023-01-11T23:42:47.960Z,73.80
2023-01-11T23:45:14.618Z,73.65
2023-01-11T23:47:41.220Z,73.61
2023-01-11T23:50:08.381Z,73.23
2023-01-11T23:52:35.109Z,74.00
2023-01-11T23:55:01.737Z,73.28
2023-01-11T23:57:28.357Z,72.90
2023-01-11T23:59:55.093Z,72.86
